sensor_id;sensor_type;location;lat;lon;timestamp;temperature;humidity
67748;HTU21D;54543;50.712;6.070;2023-04-26T00:01:30;3.94;73.09
67748;HTU21D;54543;50.712;6.070;2023-04-26T00:03:56;3.89;73.26
67748;HTU21D;54543;50.712;6.070;2023-04-26T00:06:22;3.82;73.47
67748;HTU21D;54543;50.712;6.070;2023-04-26T00:08:47;3.75;73.56
67748;HTU21D;54543;50.712;6.070;2023-04-26T00:11:13;3.71;73.71
67748;HTU21D;54543;50.712;6.070;2023-04-26T00:13:38;3.63;73.74
67748;HTU21D;54543;50.712;6.070;2023-04-26T00:16:04;3.58;73.98
67748;HTU21D;54543;50.712;6.070;2023-04-26T00:18:30;3.54;74.04
67748;HTU21D;54543;50.712;6.070;2023-04-26T00:20:56;3.50;74.18
67748;HTU21D;54543;50.712;6.070;2023-04-26T00:23:22;3.46;74.31
67748;HTU21D;54543;50.712;6.070;2023-04-26T00:25:47;3.42;74.41
67748;HTU21D;54543;50.712;6.070;2023-04-26T00:28:13;3.38;74.62
67748;HTU21D;54543;50.712;6.070;2023-04-26T00:30:38;3.32;74.73
67748;HTU21D;54543;50.712;6.070;2023-04-26T00:33:11;3.29;74.89
67748;HTU21D;54543;50.712;6.070;2023-04-26T00:35:37;3.26;75.02
67748;HTU21D;54543;50.712;6.070;2023-04-26T00:38:02;3.24;75.01
67748;HTU21D;54543;50.712;6.070;2023-04-26T00:40:29;3.20;75.12
67748;HTU21D;54543;50.712;6.070;2023-04-26T00:42:58;3.19;75.09
67748;HTU21D;54543;50.712;6.070;2023-04-26T00:45:24;3.17;75.23
67748;HTU21D;54543;50.712;6.070;2023-04-26T00:47:50;3.16;75.20
67748;HTU21D;54543;50.712;6.070;2023-04-26T00:50:15;3.14;75.22
67748;HTU21D;54543;50.712;6.070;2023-04-26T00:52:42;3.10;75.17
67748;HTU21D;54543;50.712;6.070;2023-04-26T00:55:09;3.00;75.61
67748;HTU21D;54543;50.712;6.070;2023-04-26T00:57:34;2.90;75.80
67748;HTU21D;54543;50.712;6.070;2023-04-26T01:00:00;2.84;75.70
67748;HTU21D;54543;50.712;6.070;2023-04-26T01:02:26;2.81;75.89
67748;HTU21D;54543;50.712;6.070;2023-04-26T01:04:51;2.74;75.79
67748;HTU21D;54543;50.712;6.070;2023-04-26T01:07:17;2.71;75.84
67748;HTU21D;54543;50.712;6.070;2023-04-26T01:09:43;2.68;75.92
67748;HTU21D;54543;50.712;6.070;2023-04-26T01:12:09;2.65;75.99
67748;HTU21D;54543;50.712;6.070;2023-04-26T01:14:36;2.61;76.03
67748;HTU21D;54543;50.712;6.070;2023-04-26T01:17:03;2.56;76.28
67748;HTU21D;54543;50.712;6.070;2023-04-26T01:19:30;2.53;76.28
67748;HTU21D;54543;50.712;6.070;2023-04-26T01:21:56;2.50;76.35
67748;HTU21D;54543;50.712;6.070;2023-04-26T01:24:22;2.46;76.51
67748;HTU21D;54543;50.712;6.070;2023-04-26T01:26:48;2.41;76.53
67748;HTU21D;54543;50.712;6.070;2023-04-26T01:29:15;2.39;76.72
67748;HTU21D;54543;50.712;6.070;2023-04-26T01:31:41;2.36;76.60
67748;HTU21D;54543;50.712;6.070;2023-04-26T01:34:06;2.32;76.89
67748;HTU21D;54543;50.712;6.070;2023-04-26T01:36:32;2.31;76.73
67748;HTU21D;54543;50.712;6.070;2023-04-26T01:38:58;2.27;77.03
67748;HTU21D;54543;50.712;6.070;2023-04-26T01:41:24;2.23;77.04
67748;HTU21D;54543;50.712;6.070;2023-04-26T01:43:50;2.21;77.30
67748;HTU21D;54543;50.712;6.070;2023-04-26T01:46:15;2.16;77.27
67748;HTU21D;54543;50.712;6.070;2023-04-26T01:48:41;2.13;77.49
67748;HTU21D;54543;50.712;6.070;2023-04-26T01:51:07;2.07;77.83
67748;HTU21D;54543;50.712;6.070;2023-04-26T01:53:32;2.02;77.93
67748;HTU21D;54543;50.712;6.070;2023-04-26T01:56:02;1.99;78.01
67748;HTU21D;54543;50.712;6.070;2023-04-26T01:58:28;1.95;77.92
67748;HTU21D;54543;50.712;6.070;2023-04-26T02:00:53;1.92;77.92
67748;HTU21D;54543;50.712;6.070;2023-04-26T02:03:19;1.87;77.90
67748;HTU21D;54543;50.712;6.070;2023-04-26T02:05:45;1.86;78.09
67748;HTU21D;54543;50.712;6.070;2023-04-26T02:08:11;1.85;77.99
67748;HTU21D;54543;50.712;6.070;2023-04-26T02:10:36;1.80;78.20
67748;HTU21D;54543;50.712;6.070;2023-04-26T02:13:02;1.77;78.40
67748;HTU21D;54543;50.712;6.070;2023-04-26T02:15:28;1.75;78.32
67748;HTU21D;54543;50.712;6.070;2023-04-26T02:17:54;1.71;78.40
67748;HTU21D;54543;50.712;6.070;2023-04-26T02:20:23;1.68;78.37
67748;HTU21D;54543;50.712;6.070;2023-04-26T02:22:48;1.66;78.50
67748;HTU21D;54543;50.712;6.070;2023-04-26T02:25:14;1.64;78.56
67748;HTU21D;54543;50.712;6.070;2023-04-26T02:27:40;1.64;78.65
67748;HTU21D;54543;50.712;6.070;2023-04-26T02:30:06;1.62;78.76
67748;HTU21D;54543;50.712;6.070;2023-04-26T02:32:33;1.64;78.72
67748;HTU21D;54543;50.712;6.070;2023-04-26T02:34:59;1.62;78.84
67748;HTU21D;54543;50.712;6.070;2023-04-26T02:37:25;1.60;78.75
67748;HTU21D;54543;50.712;6.070;2023-04-26T02:39:51;1.57;78.74
67748;HTU21D;54543;50.712;6.070;2023-04-26T02:42:17;1.55;78.90
67748;HTU21D;54543;50.712;6.070;2023-04-26T02:44:43;1.52;79.04
67748;HTU21D;54543;50.712;6.070;2023-04-26T02:47:09;1.49;78.85
67748;HTU21D;54543;50.712;6.070;2023-04-26T02:49:36;1.45;79.43
67748;HTU21D;54543;50.712;6.070;2023-04-26T02:52:01;1.38;79.30
67748;HTU21D;54543;50.712;6.070;2023-04-26T02:54:28;1.31;80.32
67748;HTU21D;54543;50.712;6.070;2023-04-26T02:56:54;1.23;79.56
67748;HTU21D;54543;50.712;6.070;2023-04-26T02:59:19;1.20;79.82
67748;HTU21D;54543;50.712;6.070;2023-04-26T03:01:45;1.18;79.88
67748;HTU21D;54543;50.712;6.070;2023-04-26T03:04:11;1.16;79.98
67748;HTU21D;54543;50.712;6.070;2023-04-26T03:06:37;1.14;79.96
67748;HTU21D;54543;50.712;6.070;2023-04-26T03:09:03;1.13;79.92
67748;HTU21D;54543;50.712;6.070;2023-04-26T03:11:30;1.13;80.18
67748;HTU21D;54543;50.712;6.070;2023-04-26T03:13:56;1.09;80.13
67748;HTU21D;54543;50.712;6.070;2023-04-26T03:16:23;1.08;80.21
67748;HTU21D;54543;50.712;6.070;2023-04-26T03:18:49;1.06;80.17
67748;HTU21D;54543;50.712;6.070;2023-04-26T03:21:15;1.06;80.52
67748;HTU21D;54543;50.712;6.070;2023-04-26T03:23:41;1.06;80.52
67748;HTU21D;54543;50.712;6.070;2023-04-26T03:26:06;1.03;80.74
67748;HTU21D;54543;50.712;6.070;2023-04-26T03:28:32;0.99;80.60
67748;HTU21D;54543;50.712;6.070;2023-04-26T03:30:57;0.98;80.59
67748;HTU21D;54543;50.712;6.070;2023-04-26T03:33:24;0.98;80.52
67748;HTU21D;54543;50.712;6.070;2023-04-26T03:35:51;0.96;80.71
67748;HTU21D;54543;50.712;6.070;2023-04-26T03:38:16;0.96;80.78
67748;HTU21D;54543;50.712;6.070;2023-04-26T03:40:43;0.95;80.81
67748;HTU21D;54543;50.712;6.070;2023-04-26T03:43:09;0.94;80.76
67748;HTU21D;54543;50.712;6.070;2023-04-26T03:45:34;0.93;80.55
67748;HTU21D;54543;50.712;6.070;2023-04-26T03:48:01;0.92;80.72
67748;HTU21D;54543;50.712;6.070;2023-04-26T03:50:26;0.91;80.57
67748;HTU21D;54543;50.712;6.070;2023-04-26T03:52:52;0.89;80.65
67748;HTU21D;54543;50.712;6.070;2023-04-26T03:55:19;0.88;80.76
67748;HTU21D;54543;50.712;6.070;2023-04-26T03:57:44;0.87;80.72
67748;HTU21D;54543;50.712;6.070;2023-04-26T04:00:10;0.84;80.82
67748;HTU21D;54543;50.712;6.070;2023-04-26T04:02:38;0.83;80.86
67748;HTU21D;54543;50.712;6.070;2023-04-26T04:05:04;0.82;80.81
67748;HTU21D;54543;50.712;6.070;2023-04-26T04:07:30;0.81;80.98
67748;HTU21D;54543;50.712;6.070;2023-04-26T04:09:57;0.82;81.11
67748;HTU21D;54543;50.712;6.070;2023-04-26T04:12:24;0.82;81.13
67748;HTU21D;54543;50.712;6.070;2023-04-26T04:14:50;0.82;81.06
67748;HTU21D;54543;50.712;6.070;2023-04-26T04:17:18;0.82;81.33
67748;HTU21D;54543;50.712;6.070;2023-04-26T04:19:43;0.83;81.46
67748;HTU21D;54543;50.712;6.070;2023-04-26T04:22:10;0.83;81.44
67748;HTU21D;54543;50.712;6.070;2023-04-26T04:24:35;0.82;81.38
67748;HTU21D;54543;50.712;6.070;2023-04-26T04:27:02;0.82;81.28
67748;HTU21D;54543;50.712;6.070;2023-04-26T04:29:28;0.82;81.42
67748;HTU21D;54543;50.712;6.070;2023-04-26T04:31:54;0.83;81.39
67748;HTU21D;54543;50.712;6.070;2023-04-26T04:34:21;0.84;81.48
67748;HTU21D;54543;50.712;6.070;2023-04-26T04:36:48;0.86;81.42
67748;HTU21D;54543;50.712;6.070;2023-04-26T04:39:15;0.87;81.22
67748;HTU21D;54543;50.712;6.070;2023-04-26T04:41:42;0.87;81.34
67748;HTU21D;54543;50.712;6.070;2023-04-26T04:44:14;0.89;81.39
67748;HTU21D;54543;50.712;6.070;2023-04-26T04:46:41;0.91;81.38
67748;HTU21D;54543;50.712;6.070;2023-04-26T04:49:07;0.91;81.39
67748;HTU21D;54543;50.712;6.070;2023-04-26T04:51:35;0.94;81.46
67748;HTU21D;54543;50.712;6.070;2023-04-26T04:54:13;0.98;81.68
67748;HTU21D;54543;50.712;6.070;2023-04-26T04:56:39;1.03;81.52
67748;HTU21D;54543;50.712;6.070;2023-04-26T04:59:05;1.06;81.55
67748;HTU21D;54543;50.712;6.070;2023-04-26T05:01:32;1.10;81.62
67748;HTU21D;54543;50.712;6.070;2023-04-26T05:03:58;1.11;81.45
67748;HTU21D;54543;50.712;6.070;2023-04-26T05:06:24;1.13;81.49
67748;HTU21D;54543;50.712;6.070;2023-04-26T05:08:50;1.13;81.39
67748;HTU21D;54543;50.712;6.070;2023-04-26T05:11:16;1.18;81.55
67748;HTU21D;54543;50.712;6.070;2023-04-26T05:13:41;1.20;81.45
67748;HTU21D;54543;50.712;6.070;2023-04-26T05:16:07;1.23;81.40
67748;HTU21D;54543;50.712;6.070;2023-04-26T05:18:32;1.25;81.34
67748;HTU21D;54543;50.712;6.070;2023-04-26T05:20:58;1.25;81.14
67748;HTU21D;54543;50.712;6.070;2023-04-26T05:23:24;1.27;81.16
67748;HTU21D;54543;50.712;6.070;2023-04-26T05:25:49;1.28;81.33
67748;HTU21D;54543;50.712;6.070;2023-04-26T05:28:15;1.31;81.49
67748;HTU21D;54543;50.712;6.070;2023-04-26T05:30:41;1.33;81.49
67748;HTU21D;54543;50.712;6.070;2023-04-26T05:33:07;1.38;81.49
67748;HTU21D;54543;50.712;6.070;2023-04-26T05:35:33;1.42;81.62
67748;HTU21D;54543;50.712;6.070;2023-04-26T05:37:59;1.49;81.57
67748;HTU21D;54543;50.712;6.070;2023-04-26T05:40:25;1.56;81.68
67748;HTU21D;54543;50.712;6.070;2023-04-26T05:42:50;1.65;81.88
67748;HTU21D;54543;50.712;6.070;2023-04-26T05:45:16;1.72;81.44
67748;HTU21D;54543;50.712;6.070;2023-04-26T05:47:42;1.77;81.17
67748;HTU21D;54543;50.712;6.070;2023-04-26T05:50:08;1.81;80.95
67748;HTU21D;54543;50.712;6.070;2023-04-26T05:52:34;1.86;80.88
67748;HTU21D;54543;50.712;6.070;2023-04-26T05:55:00;1.95;80.72
67748;HTU21D;54543;50.712;6.070;2023-04-26T05:57:30;2.01;80.54
67748;HTU21D;54543;50.712;6.070;2023-04-26T05:59:55;2.10;80.44
67748;HTU21D;54543;50.712;6.070;2023-04-26T06:02:21;2.20;80.38
67748;HTU21D;54543;50.712;6.070;2023-04-26T06:04:47;2.30;80.42
67748;HTU21D;54543;50.712;6.070;2023-04-26T06:07:12;2.43;80.24
67748;HTU21D;54543;50.712;6.070;2023-04-26T06:09:38;2.53;79.78
67748;HTU21D;54543;50.712;6.070;2023-04-26T06:12:04;2.67;79.73
67748;HTU21D;54543;50.712;6.070;2023-04-26T06:14:30;2.79;79.51
67748;HTU21D;54543;50.712;6.070;2023-04-26T06:16:56;2.90;79.25
67748;HTU21D;54543;50.712;6.070;2023-04-26T06:19:21;3.06;79.59
67748;HTU21D;54543;50.712;6.070;2023-04-26T06:21:47;3.16;78.95
67748;HTU21D;54543;50.712;6.070;2023-04-26T06:24:13;3.28;78.76
67748;HTU21D;54543;50.712;6.070;2023-04-26T06:26:40;3.46;78.59
67748;HTU21D;54543;50.712;6.070;2023-04-26T06:29:06;3.64;78.25
67748;HTU21D;54543;50.712;6.070;2023-04-26T06:31:31;3.82;77.79
67748;HTU21D;54543;50.712;6.070;2023-04-26T06:33:57;4.02;77.51
67748;HTU21D;54543;50.712;6.070;2023-04-26T06:36:24;4.18;77.18
67748;HTU21D;54543;50.712;6.070;2023-04-26T06:38:49;4.36;76.74
67748;HTU21D;54543;50.712;6.070;2023-04-26T06:41:15;4.53;76.43
67748;HTU21D;54543;50.712;6.070;2023-04-26T06:43:41;4.68;76.07
67748;HTU21D;54543;50.712;6.070;2023-04-26T06:46:06;4.78;75.66
67748;HTU21D;54543;50.712;6.070;2023-04-26T06:48:32;4.88;75.42
67748;HTU21D;54543;50.712;6.070;2023-04-26T06:50:58;4.98;75.40
67748;HTU21D;54543;50.712;6.070;2023-04-26T06:53:23;5.09;75.18
67748;HTU21D;54543;50.712;6.070;2023-04-26T06:55:49;5.20;74.69
67748;HTU21D;54543;50.712;6.070;2023-04-26T06:58:15;5.32;74.29
67748;HTU21D;54543;50.712;6.070;2023-04-26T07:00:40;5.46;73.97
67748;HTU21D;54543;50.712;6.070;2023-04-26T07:03:06;5.66;74.31
67748;HTU21D;54543;50.712;6.070;2023-04-26T07:05:31;5.91;74.13
67748;HTU21D;54543;50.712;6.070;2023-04-26T07:07:57;6.13;73.67
67748;HTU21D;54543;50.712;6.070;2023-04-26T07:10:23;6.29;73.05
67748;HTU21D;54543;50.712;6.070;2023-04-26T07:12:50;6.49;72.37
67748;HTU21D;54543;50.712;6.070;2023-04-26T07:15:16;6.59;71.77
67748;HTU21D;54543;50.712;6.070;2023-04-26T07:17:41;6.69;71.70
67748;HTU21D;54543;50.712;6.070;2023-04-26T07:20:07;6.80;71.83
67748;HTU21D;54543;50.712;6.070;2023-04-26T07:22:33;6.88;71.52
67748;HTU21D;54543;50.712;6.070;2023-04-26T07:24:59;6.99;71.10
67748;HTU21D;54543;50.712;6.070;2023-04-26T07:27:24;7.11;70.64
67748;HTU21D;54543;50.712;6.070;2023-04-26T07:29:53;7.19;69.07
67748;HTU21D;54543;50.712;6.070;2023-04-26T07:32:19;7.24;69.64
67748;HTU21D;54543;50.712;6.070;2023-04-26T07:34:45;7.30;69.92
67748;HTU21D;54543;50.712;6.070;2023-04-26T07:37:10;7.32;69.16
67748;HTU21D;54543;50.712;6.070;2023-04-26T07:39:36;7.37;69.00
67748;HTU21D;54543;50.712;6.070;2023-04-26T07:42:02;7.40;69.35
67748;HTU21D;54543;50.712;6.070;2023-04-26T07:44:28;7.52;69.38
67748;HTU21D;54543;50.712;6.070;2023-04-26T07:46:53;7.63;69.36
67748;HTU21D;54543;50.712;6.070;2023-04-26T07:49:19;7.78;69.10
67748;HTU21D;54543;50.712;6.070;2023-04-26T07:51:44;7.89;68.55
67748;HTU21D;54543;50.712;6.070;2023-04-26T07:54:10;7.99;68.23
67748;HTU21D;54543;50.712;6.070;2023-04-26T07:56:36;8.07;67.97
67748;HTU21D;54543;50.712;6.070;2023-04-26T07:59:01;8.16;68.05
67748;HTU21D;54543;50.712;6.070;2023-04-26T08:01:28;8.24;67.84
67748;HTU21D;54543;50.712;6.070;2023-04-26T08:03:53;8.30;67.36
67748;HTU21D;54543;50.712;6.070;2023-04-26T08:06:20;8.37;66.95
67748;HTU21D;54543;50.712;6.070;2023-04-26T08:08:46;8.39;66.98
67748;HTU21D;54543;50.712;6.070;2023-04-26T08:11:15;8.38;66.33
67748;HTU21D;54543;50.712;6.070;2023-04-26T08:13:41;8.35;66.18
67748;HTU21D;54543;50.712;6.070;2023-04-26T08:16:08;8.41;66.29
67748;HTU21D;54543;50.712;6.070;2023-04-26T08:18:34;8.53;66.33
67748;HTU21D;54543;50.712;6.070;2023-04-26T08:21:00;8.75;66.29
67748;HTU21D;54543;50.712;6.070;2023-04-26T08:23:25;8.94;64.88
67748;HTU21D;54543;50.712;6.070;2023-04-26T08:25:51;8.96;63.94
67748;HTU21D;54543;50.712;6.070;2023-04-26T08:28:16;8.90;63.85
67748;HTU21D;54543;50.712;6.070;2023-04-26T08:30:42;8.80;64.17
67748;HTU21D;54543;50.712;6.070;2023-04-26T08:33:08;8.90;63.97
67748;HTU21D;54543;50.712;6.070;2023-04-26T08:35:34;9.11;60.37
67748;HTU21D;54543;50.712;6.070;2023-04-26T08:38:00;9.23;61.19
67748;HTU21D;54543;50.712;6.070;2023-04-26T08:40:25;9.21;61.06
67748;HTU21D;54543;50.712;6.070;2023-04-26T08:42:51;9.26;62.78
67748;HTU21D;54543;50.712;6.070;2023-04-26T08:45:21;9.41;62.34
67748;HTU21D;54543;50.712;6.070;2023-04-26T08:50:18;9.84;61.96
67748;HTU21D;54543;50.712;6.070;2023-04-26T08:52:47;9.98;60.78
67748;HTU21D;54543;50.712;6.070;2023-04-26T08:55:13;9.99;59.92
67748;HTU21D;54543;50.712;6.070;2023-04-26T08:57:42;10.01;60.51
67748;HTU21D;54543;50.712;6.070;2023-04-26T09:00:08;10.09;60.34
67748;HTU21D;54543;50.712;6.070;2023-04-26T09:02:42;10.28;56.90
67748;HTU21D;54543;50.712;6.070;2023-04-26T09:05:10;10.50;59.59
67748;HTU21D;54543;50.712;6.070;2023-04-26T09:10:03;10.85;59.30
67748;HTU21D;54543;50.712;6.070;2023-04-26T09:12:30;11.10;58.64
67748;HTU21D;54543;50.712;6.070;2023-04-26T09:14:56;11.19;57.16
67748;HTU21D;54543;50.712;6.070;2023-04-26T09:17:30;11.17;52.22
67748;HTU21D;54543;50.712;6.070;2023-04-26T09:20:00;11.10;56.97
67748;HTU21D;54543;50.712;6.070;2023-04-26T09:22:35;11.14;52.93
67748;HTU21D;54543;50.712;6.070;2023-04-26T09:25:03;11.43;55.43
67748;HTU21D;54543;50.712;6.070;2023-04-26T09:27:37;11.67;52.22
67748;HTU21D;54543;50.712;6.070;2023-04-26T09:30:13;11.73;52.68
67748;HTU21D;54543;50.712;6.070;2023-04-26T09:35:39;11.97;49.49
67748;HTU21D;54543;50.712;6.070;2023-04-26T09:38:07;11.92;53.48
67748;HTU21D;54543;50.712;6.070;2023-04-26T09:40:35;11.83;46.35
67748;HTU21D;54543;50.712;6.070;2023-04-26T09:45:33;11.66;54.01
67748;HTU21D;54543;50.712;6.070;2023-04-26T09:50:42;11.46;46.39
67748;HTU21D;54543;50.712;6.070;2023-04-26T09:53:24;11.40;50.73
67748;HTU21D;54543;50.712;6.070;2023-04-26T09:55:51;11.47;55.42
67748;HTU21D;54543;50.712;6.070;2023-04-26T09:58:18;11.57;55.33
67748;HTU21D;54543;50.712;6.070;2023-04-26T10:00:44;11.66;54.15
67748;HTU21D;54543;50.712;6.070;2023-04-26T10:03:12;11.74;54.07
67748;HTU21D;54543;50.712;6.070;2023-04-26T10:05:38;11.88;52.54
67748;HTU21D;54543;50.712;6.070;2023-04-26T10:08:05;12.06;51.08
67748;HTU21D;54543;50.712;6.070;2023-04-26T10:10:31;12.19;52.27
67748;HTU21D;54543;50.712;6.070;2023-04-26T10:12:57;12.35;51.28
67748;HTU21D;54543;50.712;6.070;2023-04-26T10:15:25;12.45;52.11
67748;HTU21D;54543;50.712;6.070;2023-04-26T10:17:50;12.49;52.96
67748;HTU21D;54543;50.712;6.070;2023-04-26T10:20:17;12.55;51.80
67748;HTU21D;54543;50.712;6.070;2023-04-26T10:22:51;12.52;51.56
67748;HTU21D;54543;50.712;6.070;2023-04-26T10:25:17;12.59;52.82
67748;HTU21D;54543;50.712;6.070;2023-04-26T10:30:13;12.72;51.36
67748;HTU21D;54543;50.712;6.070;2023-04-26T10:35:17;12.55;47.96
67748;HTU21D;54543;50.712;6.070;2023-04-26T10:40:37;12.46;47.20
67748;HTU21D;54543;50.712;6.070;2023-04-26T10:45:46;12.71;48.56
67748;HTU21D;54543;50.712;6.070;2023-04-26T10:48:19;12.82;44.46
67748;HTU21D;54543;50.712;6.070;2023-04-26T10:56:49;12.75;47.26
67748;HTU21D;54543;50.712;6.070;2023-04-26T10:59:13;12.69;40.96
67748;HTU21D;54543;50.712;6.070;2023-04-26T11:01:40;12.73;46.71
67748;HTU21D;54543;50.712;6.070;2023-04-26T11:04:13;12.78;43.26
67748;HTU21D;54543;50.712;6.070;2023-04-26T11:06:54;12.85;40.46
67748;HTU21D;54543;50.712;6.070;2023-04-26T11:09:38;13.00;44.06
67748;HTU21D;54543;50.712;6.070;2023-04-26T11:12:11;13.17;45.40
67748;HTU21D;54543;50.712;6.070;2023-04-26T11:14:37;13.40;42.49
67748;HTU21D;54543;50.712;6.070;2023-04-26T11:17:07;13.40;45.19
67748;HTU21D;54543;50.712;6.070;2023-04-26T11:19:33;13.33;45.09
67748;HTU21D;54543;50.712;6.070;2023-04-26T11:21:59;13.18;41.71
67748;HTU21D;54543;50.712;6.070;2023-04-26T11:24:32;13.05;42.39
67748;HTU21D;54543;50.712;6.070;2023-04-26T11:27:01;13.19;45.05
67748;HTU21D;54543;50.712;6.070;2023-04-26T11:29:32;13.47;45.90
67748;HTU21D;54543;50.712;6.070;2023-04-26T11:31:58;13.69;44.75
67748;HTU21D;54543;50.712;6.070;2023-04-26T11:34:33;13.77;38.84
67748;HTU21D;54543;50.712;6.070;2023-04-26T11:37:03;13.80;44.73
67748;HTU21D;54543;50.712;6.070;2023-04-26T11:39:33;13.82;44.97
67748;HTU21D;54543;50.712;6.070;2023-04-26T11:42:05;13.86;44.66
67748;HTU21D;54543;50.712;6.070;2023-04-26T11:44:32;13.98;45.22
67748;HTU21D;54543;50.712;6.070;2023-04-26T11:47:00;14.05;43.85
67748;HTU21D;54543;50.712;6.070;2023-04-26T11:49:26;14.05;45.47
67748;HTU21D;54543;50.712;6.070;2023-04-26T11:51:52;14.18;45.52
67748;HTU21D;54543;50.712;6.070;2023-04-26T11:54:32;14.20;39.23
67748;HTU21D;54543;50.712;6.070;2023-04-26T11:56:58;14.19;45.90
67748;HTU21D;54543;50.712;6.070;2023-04-26T11:59:28;14.38;46.01
67748;HTU21D;54543;50.712;6.070;2023-04-26T12:01:57;14.51;45.01
67748;HTU21D;54543;50.712;6.070;2023-04-26T12:04:30;14.56;40.44
67748;HTU21D;54543;50.712;6.070;2023-04-26T12:06:56;14.71;43.95
67748;HTU21D;54543;50.712;6.070;2023-04-26T12:09:23;14.81;44.00
67748;HTU21D;54543;50.712;6.070;2023-04-26T12:12:03;14.85;37.32
67748;HTU21D;54543;50.712;6.070;2023-04-26T12:14:32;14.89;44.19
67748;HTU21D;54543;50.712;6.070;2023-04-26T12:17:01;14.98;42.61
67748;HTU21D;54543;50.712;6.070;2023-04-26T12:19:31;14.98;43.17
67748;HTU21D;54543;50.712;6.070;2023-04-26T12:21:57;14.96;44.16
67748;HTU21D;54543;50.712;6.070;2023-04-26T12:24:23;14.92;42.61
67748;HTU21D;54543;50.712;6.070;2023-04-26T12:26:50;14.69;39.56
67748;HTU21D;54543;50.712;6.070;2023-04-26T12:29:16;14.55;42.57
67748;HTU21D;54543;50.712;6.070;2023-04-26T12:31:42;14.63;44.22
67748;HTU21D;54543;50.712;6.070;2023-04-26T12:34:08;14.79;43.60
67748;HTU21D;54543;50.712;6.070;2023-04-26T12:36:33;14.81;42.48
67748;HTU21D;54543;50.712;6.070;2023-04-26T12:38:59;14.78;43.74
67748;HTU21D;54543;50.712;6.070;2023-04-26T12:41:28;14.85;43.92
67748;HTU21D;54543;50.712;6.070;2023-04-26T12:43:53;14.97;44.00
67748;HTU21D;54543;50.712;6.070;2023-04-26T12:46:19;15.10;43.38
67748;HTU21D;54543;50.712;6.070;2023-04-26T12:48:45;15.11;43.22
67748;HTU21D;54543;50.712;6.070;2023-04-26T12:51:11;15.18;43.14
67748;HTU21D;54543;50.712;6.070;2023-04-26T12:53:37;15.30;42.65
67748;HTU21D;54543;50.712;6.070;2023-04-26T12:56:02;15.29;42.07
67748;HTU21D;54543;50.712;6.070;2023-04-26T12:58:28;15.27;38.92
67748;HTU21D;54543;50.712;6.070;2023-04-26T13:00:54;15.31;42.27
67748;HTU21D;54543;50.712;6.070;2023-04-26T13:03:19;15.30;42.31
67748;HTU21D;54543;50.712;6.070;2023-04-26T13:05:45;15.31;41.17
67748;HTU21D;54543;50.712;6.070;2023-04-26T13:08:11;15.27;42.10
67748;HTU21D;54543;50.712;6.070;2023-04-26T13:10:36;15.19;40.71
67748;HTU21D;54543;50.712;6.070;2023-04-26T13:13:02;15.16;42.77
67748;HTU21D;54543;50.712;6.070;2023-04-26T13:15:27;15.32;43.44
67748;HTU21D;54543;50.712;6.070;2023-04-26T13:17:54;15.58;42.57
67748;HTU21D;54543;50.712;6.070;2023-04-26T13:20:20;15.70;42.74
67748;HTU21D;54543;50.712;6.070;2023-04-26T13:22:45;15.91;41.57
67748;HTU21D;54543;50.712;6.070;2023-04-26T13:25:11;15.96;41.13
67748;HTU21D;54543;50.712;6.070;2023-04-26T13:27:40;15.98;39.78
67748;HTU21D;54543;50.712;6.070;2023-04-26T13:30:06;15.99;41.73
67748;HTU21D;54543;50.712;6.070;2023-04-26T13:32:32;16.04;36.80
67748;HTU21D;54543;50.712;6.070;2023-04-26T13:34:57;15.97;39.65
67748;HTU21D;54543;50.712;6.070;2023-04-26T13:37:23;15.93;40.95
67748;HTU21D;54543;50.712;6.070;2023-04-26T13:39:48;15.99;41.83
67748;HTU21D;54543;50.712;6.070;2023-04-26T13:42:14;16.16;41.76
67748;HTU21D;54543;50.712;6.070;2023-04-26T13:44:40;16.29;41.02
67748;HTU21D;54543;50.712;6.070;2023-04-26T13:47:06;16.25;41.33
67748;HTU21D;54543;50.712;6.070;2023-04-26T13:49:31;16.24;40.76
67748;HTU21D;54543;50.712;6.070;2023-04-26T13:51:57;16.14;41.50
67748;HTU21D;54543;50.712;6.070;2023-04-26T13:54:23;15.98;42.45
67748;HTU21D;54543;50.712;6.070;2023-04-26T13:56:50;15.91;38.75
67748;HTU21D;54543;50.712;6.070;2023-04-26T13:59:16;15.84;42.69
67748;HTU21D;54543;50.712;6.070;2023-04-26T14:01:42;15.93;42.68
67748;HTU21D;54543;50.712;6.070;2023-04-26T14:04:08;16.17;42.84
67748;HTU21D;54543;50.712;6.070;2023-04-26T14:06:34;16.47;42.56
67748;HTU21D;54543;50.712;6.070;2023-04-26T14:09:00;16.72;42.74
67748;HTU21D;54543;50.712;6.070;2023-04-26T14:11:26;16.79;42.18
67748;HTU21D;54543;50.712;6.070;2023-04-26T14:13:52;16.76;36.20
67748;HTU21D;54543;50.712;6.070;2023-04-26T14:16:23;16.74;42.92
67748;HTU21D;54543;50.712;6.070;2023-04-26T14:18:49;16.74;42.29
67748;HTU21D;54543;50.712;6.070;2023-04-26T14:21:15;16.72;39.85
67748;HTU21D;54543;50.712;6.070;2023-04-26T14:23:41;16.62;43.11
67748;HTU21D;54543;50.712;6.070;2023-04-26T14:26:07;16.52;43.16
67748;HTU21D;54543;50.712;6.070;2023-04-26T14:28:32;16.29;42.45
67748;HTU21D;54543;50.712;6.070;2023-04-26T14:30:58;15.76;42.44
67748;HTU21D;54543;50.712;6.070;2023-04-26T14:33:25;15.34;43.04
67748;HTU21D;54543;50.712;6.070;2023-04-26T14:35:50;15.06;43.53
67748;HTU21D;54543;50.712;6.070;2023-04-26T14:38:17;15.04;44.44
67748;HTU21D;54543;50.712;6.070;2023-04-26T14:40:43;15.23;44.55
67748;HTU21D;54543;50.712;6.070;2023-04-26T14:43:09;15.53;45.22
67748;HTU21D;54543;50.712;6.070;2023-04-26T14:45:35;15.62;42.27
67748;HTU21D;54543;50.712;6.070;2023-04-26T14:48:01;15.48;43.64
67748;HTU21D;54543;50.712;6.070;2023-04-26T14:50:27;15.41;44.24
67748;HTU21D;54543;50.712;6.070;2023-04-26T14:52:54;15.37;43.27
67748;HTU21D;54543;50.712;6.070;2023-04-26T14:55:20;15.13;43.58
67748;HTU21D;54543;50.712;6.070;2023-04-26T14:57:51;15.03;44.89
67748;HTU21D;54543;50.712;6.070;2023-04-26T15:00:17;14.94;44.73
67748;HTU21D;54543;50.712;6.070;2023-04-26T15:02:43;14.83;44.93
67748;HTU21D;54543;50.712;6.070;2023-04-26T15:05:10;14.81;44.56
67748;HTU21D;54543;50.712;6.070;2023-04-26T15:07:37;14.80;45.13
67748;HTU21D;54543;50.712;6.070;2023-04-26T15:10:03;14.89;45.09
67748;HTU21D;54543;50.712;6.070;2023-04-26T15:12:29;15.02;44.74
67748;HTU21D;54543;50.712;6.070;2023-04-26T15:14:55;15.03;44.48
67748;HTU21D;54543;50.712;6.070;2023-04-26T15:17:21;15.13;45.54
67748;HTU21D;54543;50.712;6.070;2023-04-26T15:19:46;15.33;46.03
67748;HTU21D;54543;50.712;6.070;2023-04-26T15:22:12;15.53;45.51
67748;HTU21D;54543;50.712;6.070;2023-04-26T15:24:38;15.76;46.36
67748;HTU21D;54543;50.712;6.070;2023-04-26T15:27:04;16.04;46.82
67748;HTU21D;54543;50.712;6.070;2023-04-26T15:29:30;16.50;48.50
67748;HTU21D;54543;50.712;6.070;2023-04-26T15:31:56;17.20;49.66
67748;HTU21D;54543;50.712;6.070;2023-04-26T15:34:22;17.97;50.24
67748;HTU21D;54543;50.712;6.070;2023-04-26T15:36:49;18.63;48.79
67748;HTU21D;54543;50.712;6.070;2023-04-26T15:39:15;18.91;47.67
67748;HTU21D;54543;50.712;6.070;2023-04-26T15:41:41;18.87;46.43
67748;HTU21D;54543;50.712;6.070;2023-04-26T15:44:06;18.61;45.77
67748;HTU21D;54543;50.712;6.070;2023-04-26T15:46:32;18.32;45.19
67748;HTU21D;54543;50.712;6.070;2023-04-26T15:48:58;18.08;45.57
67748;HTU21D;54543;50.712;6.070;2023-04-26T15:51:23;18.00;46.05